sensor_id;sensor_type;location;lat;lon;timestamp;P1;durP1;ratioP1;P2;durP2;ratioP2
14528;SDS011;7351;51.194;4.098;2023-05-10T00:36:25;5.10;;;4.80;;
14528;SDS011;7351;51.194;4.098;2023-05-10T00:44:28;4.60;;;4.30;;
14528;SDS011;7351;51.194;4.098;2023-05-10T00:46:55;4.43;;;4.13;;
14528;SDS011;7351;51.194;4.098;2023-05-10T00:49:23;4.53;;;4.23;;
14528;SDS011;7351;51.194;4.098;2023-05-10T00:51:51;5.13;;;4.83;;
14528;SDS011;7351;51.194;4.098;2023-05-10T00:54:18;4.57;;;4.27;;
14528;SDS011;7351;51.194;4.098;2023-05-10T00:56:45;4.33;;;4.13;;
14528;SDS011;7351;51.194;4.098;2023-05-10T00:59:14;4.60;;;4.30;;
14528;SDS011;7351;51.194;4.098;2023-05-10T01:01:42;5.43;;;5.13;;
14528;SDS011;7351;51.194;4.098;2023-05-10T01:04:13;4.63;;;4.33;;
14528;SDS011;7351;51.194;4.098;2023-05-10T01:06:41;4.80;;;4.60;;
14528;SDS011;7351;51.194;4.098;2023-05-10T01:09:11;4.77;;;4.43;;
14528;SDS011;7351;51.194;4.098;2023-05-10T01:11:38;4.50;;;4.30;;
14528;SDS011;7351;51.194;4.098;2023-05-10T01:14:06;5.30;;;4.90;;
14528;SDS011;7351;51.194;4.098;2023-05-10T01:16:39;4.70;;;4.40;;
14528;SDS011;7351;51.194;4.098;2023-05-10T01:19:10;5.53;;;5.03;;
14528;SDS011;7351;51.194;4.098;2023-05-10T01:21:43;5.30;;;4.90;;
14528;SDS011;7351;51.194;4.098;2023-05-10T01:24:22;4.50;;;4.20;;
14528;SDS011;7351;51.194;4.098;2023-05-10T01:27:19;5.20;;;4.77;;
14528;SDS011;7351;51.194;4.098;2023-05-10T01:30:01;5.80;;;5.40;;
14528;SDS011;7351;51.194;4.098;2023-05-10T01:32:45;5.87;;;5.37;;
14528;SDS011;7351;51.194;4.098;2023-05-10T01:35:17;5.87;;;5.47;;
14528;SDS011;7351;51.194;4.098;2023-05-10T01:37:50;5.53;;;5.23;;
14528;SDS011;7351;51.194;4.098;2023-05-10T01:40:26;5.57;;;5.23;;
14528;SDS011;7351;51.194;4.098;2023-05-10T01:42:58;5.40;;;4.93;;
14528;SDS011;7351;51.194;4.098;2023-05-10T01:45:28;5.73;;;5.23;;
14528;SDS011;7351;51.194;4.098;2023-05-10T01:48:03;5.57;;;5.17;;
14528;SDS011;7351;51.194;4.098;2023-05-10T01:50:33;5.23;;;4.77;;
14528;SDS011;7351;51.194;4.098;2023-05-10T01:53:02;4.47;;;4.17;;
14528;SDS011;7351;51.194;4.098;2023-05-10T01:55:35;5.23;;;4.77;;
14528;SDS011;7351;51.194;4.098;2023-05-10T01:58:09;5.90;;;5.60;;
14528;SDS011;7351;51.194;4.098;2023-05-10T02:00:42;5.03;;;4.63;;
14528;SDS011;7351;51.194;4.098;2023-05-10T02:03:13;6.27;;;5.77;;
14528;SDS011;7351;51.194;4.098;2023-05-10T02:05:42;5.33;;;5.03;;
14528;SDS011;7351;51.194;4.098;2023-05-10T02:08:11;5.50;;;5.20;;
14528;SDS011;7351;51.194;4.098;2023-05-10T02:10:40;5.50;;;5.20;;
14528;SDS011;7351;51.194;4.098;2023-05-10T02:13:09;6.10;;;5.70;;
14528;SDS011;7351;51.194;4.098;2023-05-10T02:15:37;6.77;;;6.27;;
14528;SDS011;7351;51.194;4.098;2023-05-10T02:18:06;6.87;;;6.27;;
14528;SDS011;7351;51.194;4.098;2023-05-10T02:20:36;6.77;;;6.27;;
14528;SDS011;7351;51.194;4.098;2023-05-10T02:23:04;6.90;;;6.40;;
14528;SDS011;7351;51.194;4.098;2023-05-10T02:25:33;6.73;;;6.20;;
14528;SDS011;7351;51.194;4.098;2023-05-10T02:28:01;6.00;;;5.60;;
14528;SDS011;7351;51.194;4.098;2023-05-10T02:30:31;6.87;;;6.40;;
14528;SDS011;7351;51.194;4.098;2023-05-10T02:32:58;7.43;;;6.73;;
14528;SDS011;7351;51.194;4.098;2023-05-10T02:35:27;8.33;;;7.83;;
14528;SDS011;7351;51.194;4.098;2023-05-10T02:37:56;7.30;;;6.80;;
14528;SDS011;7351;51.194;4.098;2023-05-10T02:40:24;7.17;;;6.67;;
14528;SDS011;7351;51.194;4.098;2023-05-10T02:42:54;7.90;;;7.20;;
14528;SDS011;7351;51.194;4.098;2023-05-10T02:45:24;7.73;;;7.30;;
14528;SDS011;7351;51.194;4.098;2023-05-10T02:47:55;9.80;;;9.10;;
14528;SDS011;7351;51.194;4.098;2023-05-10T02:50:22;9.00;;;8.37;;
14528;SDS011;7351;51.194;4.098;2023-05-10T02:52:54;9.27;;;8.67;;
14528;SDS011;7351;51.194;4.098;2023-05-10T02:55:26;10.37;;;9.67;;
14528;SDS011;7351;51.194;4.098;2023-05-10T02:57:59;11.93;;;11.10;;
14528;SDS011;7351;51.194;4.098;2023-05-10T03:00:27;10.53;;;9.90;;
14528;SDS011;7351;51.194;4.098;2023-05-10T03:02:54;11.53;;;10.83;;
14528;SDS011;7351;51.194;4.098;2023-05-10T03:05:21;11.93;;;10.93;;
14528;SDS011;7351;51.194;4.098;2023-05-10T03:07:48;10.90;;;10.20;;
14528;SDS011;7351;51.194;4.098;2023-05-10T03:10:17;12.63;;;11.77;;
14528;SDS011;7351;51.194;4.098;2023-05-10T03:12:52;11.87;;;11.07;;
14528;SDS011;7351;51.194;4.098;2023-05-10T03:15:32;12.03;;;11.13;;
14528;SDS011;7351;51.194;4.098;2023-05-10T03:18:07;13.17;;;12.07;;
14528;SDS011;7351;51.194;4.098;2023-05-10T03:20:38;12.60;;;11.70;;
14528;SDS011;7351;51.194;4.098;2023-05-10T03:23:11;13.23;;;12.33;;
14528;SDS011;7351;51.194;4.098;2023-05-10T03:25:41;13.97;;;12.97;;
14528;SDS011;7351;51.194;4.098;2023-05-10T03:28:09;14.03;;;13.13;;
14528;SDS011;7351;51.194;4.098;2023-05-10T03:30:37;14.33;;;13.33;;
14528;SDS011;7351;51.194;4.098;2023-05-10T03:33:05;16.57;;;15.37;;
14528;SDS011;7351;51.194;4.098;2023-05-10T03:35:32;15.67;;;14.67;;
14528;SDS011;7351;51.194;4.098;2023-05-10T03:37:59;15.00;;;14.00;;
14528;SDS011;7351;51.194;4.098;2023-05-10T03:40:27;15.40;;;14.40;;
14528;SDS011;7351;51.194;4.098;2023-05-10T03:42:58;14.93;;;13.67;;
14528;SDS011;7351;51.194;4.098;2023-05-10T03:45:25;15.80;;;14.70;;
14528;SDS011;7351;51.194;4.098;2023-05-10T03:47:53;15.00;;;14.00;;
14528;SDS011;7351;51.194;4.098;2023-05-10T03:50:20;17.10;;;15.90;;
14528;SDS011;7351;51.194;4.098;2023-05-10T03:52:47;17.57;;;16.33;;
14528;SDS011;7351;51.194;4.098;2023-05-10T03:55:14;15.33;;;14.23;;
14528;SDS011;7351;51.194;4.098;2023-05-10T03:57:41;17.57;;;16.43;;
14528;SDS011;7351;51.194;4.098;2023-05-10T04:00:10;17.10;;;16.00;;
14528;SDS011;7351;51.194;4.098;2023-05-10T04:02:37;17.37;;;16.17;;
14528;SDS011;7351;51.194;4.098;2023-05-10T04:05:05;18.97;;;17.70;;
14528;SDS011;7351;51.194;4.098;2023-05-10T04:07:32;16.83;;;15.73;;
14528;SDS011;7351;51.194;4.098;2023-05-10T04:09:59;17.07;;;15.97;;
14528;SDS011;7351;51.194;4.098;2023-05-10T04:12:26;17.70;;;16.47;;
14528;SDS011;7351;51.194;4.098;2023-05-10T04:14:53;17.27;;;15.97;;
14528;SDS011;7351;51.194;4.098;2023-05-10T04:17:21;16.57;;;15.37;;
14528;SDS011;7351;51.194;4.098;2023-05-10T04:19:48;17.67;;;16.37;;
14528;SDS011;7351;51.194;4.098;2023-05-10T04:22:18;19.57;;;18.27;;
14528;SDS011;7351;51.194;4.098;2023-05-10T04:24:45;19.13;;;17.73;;
14528;SDS011;7351;51.194;4.098;2023-05-10T04:27:12;18.67;;;17.27;;
14528;SDS011;7351;51.194;4.098;2023-05-10T04:29:39;17.73;;;16.53;;
14528;SDS011;7351;51.194;4.098;2023-05-10T04:32:06;19.10;;;17.90;;
14528;SDS011;7351;51.194;4.098;2023-05-10T04:34:36;19.07;;;17.80;;
14528;SDS011;7351;51.194;4.098;2023-05-10T04:37:03;18.80;;;17.60;;
14528;SDS011;7351;51.194;4.098;2023-05-10T04:39:30;18.77;;;17.47;;
14528;SDS011;7351;51.194;4.098;2023-05-10T04:41:57;20.30;;;18.97;;
14528;SDS011;7351;51.194;4.098;2023-05-10T04:44:24;18.80;;;17.33;;
14528;SDS011;7351;51.194;4.098;2023-05-10T04:46:51;19.13;;;17.93;;
14528;SDS011;7351;51.194;4.098;2023-05-10T04:49:18;18.40;;;17.00;;
14528;SDS011;7351;51.194;4.098;2023-05-10T04:51:46;20.37;;;19.00;;
14528;SDS011;7351;51.194;4.098;2023-05-10T04:54:13;19.47;;;18.17;;
14528;SDS011;7351;51.194;4.098;2023-05-10T04:56:40;20.73;;;19.37;;
14528;SDS011;7351;51.194;4.098;2023-05-10T04:59:07;20.33;;;18.93;;
14528;SDS011;7351;51.194;4.098;2023-05-10T05:01:34;18.93;;;17.30;;
14528;SDS011;7351;51.194;4.098;2023-05-10T05:04:00;18.97;;;17.57;;
14528;SDS011;7351;51.194;4.098;2023-05-10T05:06:28;19.77;;;18.47;;
14528;SDS011;7351;51.194;4.098;2023-05-10T05:08:56;18.90;;;17.63;;
14528;SDS011;7351;51.194;4.098;2023-05-10T05:11:23;19.33;;;18.10;;
14528;SDS011;7351;51.194;4.098;2023-05-10T05:13:50;19.97;;;18.67;;
14528;SDS011;7351;51.194;4.098;2023-05-10T05:16:17;20.17;;;18.77;;
14528;SDS011;7351;51.194;4.098;2023-05-10T05:18:44;21.40;;;19.90;;
14528;SDS011;7351;51.194;4.098;2023-05-10T05:21:14;24.43;;;22.37;;
14528;SDS011;7351;51.194;4.098;2023-05-10T05:23:41;26.13;;;24.23;;
14528;SDS011;7351;51.194;4.098;2023-05-10T05:26:10;28.63;;;26.57;;
14528;SDS011;7351;51.194;4.098;2023-05-10T05:28:37;30.47;;;28.17;;
14528;SDS011;7351;51.194;4.098;2023-05-10T05:31:04;33.40;;;30.90;;
14528;SDS011;7351;51.194;4.098;2023-05-10T05:33:32;31.87;;;29.40;;
14528;SDS011;7351;51.194;4.098;2023-05-10T05:36:00;34.83;;;32.53;;
14528;SDS011;7351;51.194;4.098;2023-05-10T05:38:27;36.40;;;33.63;;
14528;SDS011;7351;51.194;4.098;2023-05-10T05:40:54;31.47;;;29.07;;
14528;SDS011;7351;51.194;4.098;2023-05-10T05:43:22;32.93;;;30.73;;
14528;SDS011;7351;51.194;4.098;2023-05-10T05:45:49;30.53;;;28.33;;
14528;SDS011;7351;51.194;4.098;2023-05-10T05:48:18;33.73;;;31.53;;
14528;SDS011;7351;51.194;4.098;2023-05-10T05:50:45;35.83;;;33.37;;
14528;SDS011;7351;51.194;4.098;2023-05-10T05:53:12;34.70;;;32.13;;
14528;SDS011;7351;51.194;4.098;2023-05-10T05:55:39;33.80;;;31.13;;
14528;SDS011;7351;51.194;4.098;2023-05-10T05:58:08;32.83;;;30.60;;
14528;SDS011;7351;51.194;4.098;2023-05-10T06:00:37;34.37;;;31.87;;
14528;SDS011;7351;51.194;4.098;2023-05-10T06:03:04;30.77;;;28.57;;
14528;SDS011;7351;51.194;4.098;2023-05-10T06:05:31;30.87;;;28.50;;
14528;SDS011;7351;51.194;4.098;2023-05-10T06:07:59;30.17;;;27.97;;
14528;SDS011;7351;51.194;4.098;2023-05-10T06:10:26;31.20;;;29.20;;
14528;SDS011;7351;51.194;4.098;2023-05-10T06:12:53;30.67;;;28.20;;
14528;SDS011;7351;51.194;4.098;2023-05-10T06:15:20;28.30;;;26.33;;
14528;SDS011;7351;51.194;4.098;2023-05-10T06:17:48;27.47;;;25.67;;
14528;SDS011;7351;51.194;4.098;2023-05-10T06:20:15;26.97;;;25.23;;
14528;SDS011;7351;51.194;4.098;2023-05-10T06:22:42;27.67;;;25.57;;
14528;SDS011;7351;51.194;4.098;2023-05-10T06:25:09;28.37;;;26.40;;
14528;SDS011;7351;51.194;4.098;2023-05-10T06:27:37;28.03;;;26.13;;
14528;SDS011;7351;51.194;4.098;2023-05-10T06:30:04;29.27;;;27.23;;
14528;SDS011;7351;51.194;4.098;2023-05-10T06:32:33;27.53;;;25.70;;
14528;SDS011;7351;51.194;4.098;2023-05-10T06:35:01;27.53;;;25.50;;
14528;SDS011;7351;51.194;4.098;2023-05-10T06:37:28;25.93;;;24.07;;
14528;SDS011;7351;51.194;4.098;2023-05-10T06:39:55;25.97;;;24.13;;
14528;SDS011;7351;51.194;4.098;2023-05-10T06:42:22;25.97;;;24.07;;
14528;SDS011;7351;51.194;4.098;2023-05-10T06:44:50;25.13;;;23.53;;
14528;SDS011;7351;51.194;4.098;2023-05-10T06:47:17;23.53;;;22.00;;
14528;SDS011;7351;51.194;4.098;2023-05-10T06:49:44;26.53;;;24.47;;
14528;SDS011;7351;51.194;4.098;2023-05-10T06:52:12;23.03;;;21.27;;
14528;SDS011;7351;51.194;4.098;2023-05-10T06:54:39;25.87;;;24.07;;
14528;SDS011;7351;51.194;4.098;2023-05-10T06:57:06;25.20;;;23.47;;
14528;SDS011;7351;51.194;4.098;2023-05-10T06:59:33;25.13;;;23.37;;
14528;SDS011;7351;51.194;4.098;2023-05-10T07:02:01;25.73;;;24.07;;
14528;SDS011;7351;51.194;4.098;2023-05-10T07:04:28;24.13;;;22.63;;
14528;SDS011;7351;51.194;4.098;2023-05-10T07:06:56;24.87;;;23.17;;
14528;SDS011;7351;51.194;4.098;2023-05-10T07:09:24;24.90;;;23.30;;
14528;SDS011;7351;51.194;4.098;2023-05-10T07:11:51;23.23;;;21.53;;
14528;SDS011;7351;51.194;4.098;2023-05-10T07:14:18;22.63;;;21.07;;
14528;SDS011;7351;51.194;4.098;2023-05-10T07:16:45;20.80;;;19.47;;
14528;SDS011;7351;51.194;4.098;2023-05-10T07:19:12;22.70;;;21.10;;
14528;SDS011;7351;51.194;4.098;2023-05-10T07:21:39;20.83;;;19.33;;
14528;SDS011;7351;51.194;4.098;2023-05-10T07:24:08;21.87;;;20.33;;
14528;SDS011;7351;51.194;4.098;2023-05-10T07:26:36;20.13;;;18.93;;
14528;SDS011;7351;51.194;4.098;2023-05-10T07:29:03;19.83;;;18.53;;
14528;SDS011;7351;51.194;4.098;2023-05-10T07:31:30;19.57;;;18.33;;
14528;SDS011;7351;51.194;4.098;2023-05-10T07:33:57;19.20;;;17.30;;
14528;SDS011;7351;51.194;4.098;2023-05-10T07:36:24;18.10;;;17.00;;
14528;SDS011;7351;51.194;4.098;2023-05-10T07:38:51;18.47;;;17.07;;
14528;SDS011;7351;51.194;4.098;2023-05-10T07:41:18;16.30;;;15.20;;
14528;SDS011;7351;51.194;4.098;2023-05-10T07:43:47;18.23;;;17.03;;
14528;SDS011;7351;51.194;4.098;2023-05-10T07:46:14;17.17;;;15.93;;
14528;SDS011;7351;51.194;4.098;2023-05-10T07:48:41;17.23;;;16.00;;
14528;SDS011;7351;51.194;4.098;2023-05-10T07:51:08;16.63;;;15.53;;
14528;SDS011;7351;51.194;4.098;2023-05-10T07:53:35;16.63;;;15.43;;
14528;SDS011;7351;51.194;4.098;2023-05-10T07:58:51;13.63;;;12.80;;
14528;SDS011;7351;51.194;4.098;2023-05-10T08:01:18;15.77;;;14.77;;
14528;SDS011;7351;51.194;4.098;2023-05-10T08:03:45;14.67;;;13.63;;
14528;SDS011;7351;51.194;4.098;2023-05-10T08:06:13;16.57;;;15.23;;
14528;SDS011;7351;51.194;4.098;2023-05-10T08:08:40;17.43;;;15.90;;
14528;SDS011;7351;51.194;4.098;2023-05-10T08:11:08;17.70;;;16.43;;
14528;SDS011;7351;51.194;4.098;2023-05-10T08:13:34;18.20;;;16.50;;
14528;SDS011;7351;51.194;4.098;2023-05-10T08:16:03;20.47;;;18.53;;
14528;SDS011;7351;51.194;4.098;2023-05-10T08:18:30;20.33;;;18.67;;
14528;SDS011;7351;51.194;4.098;2023-05-10T08:20:57;20.67;;;19.03;;
14528;SDS011;7351;51.194;4.098;2023-05-10T08:23:24;20.17;;;18.37;;
14528;SDS011;7351;51.194;4.098;2023-05-10T08:25:51;18.13;;;16.63;;
14528;SDS011;7351;51.194;4.098;2023-05-10T08:28:18;19.60;;;17.73;;
14528;SDS011;7351;51.194;4.098;2023-05-10T08:30:44;21.20;;;19.50;;
14528;SDS011;7351;51.194;4.098;2023-05-10T08:33:13;20.80;;;18.70;;
14528;SDS011;7351;51.194;4.098;2023-05-10T08:35:40;22.23;;;20.27;;
14528;SDS011;7351;51.194;4.098;2023-05-10T08:38:07;22.17;;;19.90;;
14528;SDS011;7351;51.194;4.098;2023-05-10T08:40:34;25.53;;;23.03;;
14528;SDS011;7351;51.194;4.098;2023-05-10T08:43:05;29.90;;;25.53;;
14528;SDS011;7351;51.194;4.098;2023-05-10T08:45:37;27.07;;;24.47;;
14528;SDS011;7351;51.194;4.098;2023-05-10T08:48:05;26.00;;;23.40;;
14528;SDS011;7351;51.194;4.098;2023-05-10T08:50:35;27.97;;;25.30;;
14528;SDS011;7351;51.194;4.098;2023-05-10T08:53:04;27.70;;;23.50;;
14528;SDS011;7351;51.194;4.098;2023-05-10T08:55:35;29.67;;;23.63;;
14528;SDS011;7351;51.194;4.098;2023-05-10T08:58:03;25.40;;;22.57;;
14528;SDS011;7351;51.194;4.098;2023-05-10T09:00:30;25.93;;;23.03;;
14528;SDS011;7351;51.194;4.098;2023-05-10T09:02:58;24.70;;;20.87;;
14528;SDS011;7351;51.194;4.098;2023-05-10T09:05:25;24.20;;;22.13;;
14528;SDS011;7351;51.194;4.098;2023-05-10T09:07:53;23.63;;;21.50;;
14528;SDS011;7351;51.194;4.098;2023-05-10T09:10:21;26.43;;;21.93;;
14528;SDS011;7351;51.194;4.098;2023-05-10T09:12:51;22.13;;;20.03;;
14528;SDS011;7351;51.194;4.098;2023-05-10T09:15:19;24.63;;;22.10;;
14528;SDS011;7351;51.194;4.098;2023-05-10T09:17:46;22.60;;;20.50;;
14528;SDS011;7351;51.194;4.098;2023-05-10T09:20:15;22.83;;;20.63;;
14528;SDS011;7351;51.194;4.098;2023-05-10T09:22:43;23.90;;;21.40;;
14528;SDS011;7351;51.194;4.098;2023-05-10T09:25:12;22.90;;;20.63;;
14528;SDS011;7351;51.194;4.098;2023-05-10T09:27:41;22.93;;;20.93;;
14528;SDS011;7351;51.194;4.098;2023-05-10T09:30:14;22.23;;;20.33;;
14528;SDS011;7351;51.194;4.098;2023-05-10T09:32:43;22.40;;;20.33;;
14528;SDS011;7351;51.194;4.098;2023-05-10T09:35:12;20.93;;;18.90;;
14528;SDS011;7351;51.194;4.098;2023-05-10T09:37:40;23.47;;;18.97;;
14528;SDS011;7351;51.194;4.098;2023-05-10T09:40:10;21.50;;;19.53;;
14528;SDS011;7351;51.194;4.098;2023-05-10T09:42:41;21.60;;;19.77;;
14528;SDS011;7351;51.194;4.098;2023-05-10T09:45:09;21.03;;;19.23;;
14528;SDS011;7351;51.194;4.098;2023-05-10T09:47:36;20.93;;;18.87;;
14528;SDS011;7351;51.194;4.098;2023-05-10T09:50:03;22.07;;;19.97;;
14528;SDS011;7351;51.194;4.098;2023-05-10T09:52:31;22.10;;;20.10;;
14528;SDS011;7351;51.194;4.098;2023-05-10T09:55:14;22.83;;;20.77;;
14528;SDS011;7351;51.194;4.098;2023-05-10T09:57:41;20.67;;;18.87;;
14528;SDS011;7351;51.194;4.098;2023-05-10T10:00:09;20.97;;;19.10;;
14528;SDS011;7351;51.194;4.098;2023-05-10T10:02:37;19.17;;;17.53;;
14528;SDS011;7351;51.194;4.098;2023-05-10T10:05:06;20.33;;;18.43;;
14528;SDS011;7351;51.194;4.098;2023-05-10T10:07:33;20.60;;;18.40;;
14528;SDS011;7351;51.194;4.098;2023-05-10T10:10:01;21.10;;;19.20;;
14528;SDS011;7351;51.194;4.098;2023-05-10T10:12:31;19.80;;;17.83;;
14528;SDS011;7351;51.194;4.098;2023-05-10T10:14:59;22.13;;;20.07;;
14528;SDS011;7351;51.194;4.098;2023-05-10T10:17:26;18.60;;;17.03;;
14528;SDS011;7351;51.194;4.098;2023-05-10T10:19:54;18.40;;;16.80;;
14528;SDS011;7351;51.194;4.098;2023-05-10T10:22:23;18.67;;;16.80;;
14528;SDS011;7351;51.194;4.098;2023-05-10T10:24:50;19.00;;;17.47;;
14528;SDS011;7351;51.194;4.098;2023-05-10T10:27:20;16.70;;;15.40;;
14528;SDS011;7351;51.194;4.098;2023-05-10T10:29:59;20.10;;;18.50;;
14528;SDS011;7351;51.194;4.098;2023-05-10T10:32:35;16.70;;;15.30;;
14528;SDS011;7351;51.194;4.098;2023-05-10T10:35:10;18.33;;;16.73;;
14528;SDS011;7351;51.194;4.098;2023-05-10T10:37:44;17.27;;;15.80;;
14528;SDS011;7351;51.194;4.098;2023-05-10T10:40:24;17.37;;;15.73;;
14528;SDS011;7351;51.194;4.098;2023-05-10T10:42:52;16.97;;;15.67;;
14528;SDS011;7351;51.194;4.098;2023-05-10T10:45:21;17.97;;;16.30;;
14528;SDS011;7351;51.194;4.098;2023-05-10T10:47:53;17.83;;;16.07;;
14528;SDS011;7351;51.194;4.098;2023-05-10T10:50:42;17.43;;;15.63;;
14528;SDS011;7351;51.194;4.098;2023-05-10T10:53:10;16.13;;;14.70;;
14528;SDS011;7351;51.194;4.098;2023-05-10T10:55:44;16.80;;;15.40;;
14528;SDS011;7351;51.194;4.098;2023-05-10T10:58:15;17.17;;;15.63;;
14528;SDS011;7351;51.194;4.098;2023-05-10T11:01:10;15.90;;;14.73;;
14528;SDS011;7351;51.194;4.098;2023-05-10T11:03:41;16.87;;;15.33;;
14528;SDS011;7351;51.194;4.098;2023-05-10T11:06:41;14.70;;;13.40;;
14528;SDS011;7351;51.194;4.098;2023-05-10T11:09:10;15.83;;;13.87;;
14528;SDS011;7351;51.194;4.098;2023-05-10T11:11:48;15.50;;;13.83;;
14528;SDS011;7351;51.194;4.098;2023-05-10T11:14:19;15.70;;;14.50;;
14528;SDS011;7351;51.194;4.098;2023-05-10T11:16:49;18.17;;;14.40;;
14528;SDS011;7351;51.194;4.098;2023-05-10T11:19:17;15.73;;;14.37;;
14528;SDS011;7351;51.194;4.098;2023-05-10T11:21:45;14.67;;;13.37;;
14528;SDS011;7351;51.194;4.098;2023-05-10T11:24:14;14.17;;;13.07;;
14528;SDS011;7351;51.194;4.098;2023-05-10T11:26:43;15.07;;;13.70;;
14528;SDS011;7351;51.194;4.098;2023-05-10T11:29:10;14.10;;;12.93;;
14528;SDS011;7351;51.194;4.098;2023-05-10T11:31:42;14.30;;;12.83;;
14528;SDS011;7351;51.194;4.098;2023-05-10T11:34:13;13.93;;;12.93;;
14528;SDS011;7351;51.194;4.098;2023-05-10T11:36:50;12.50;;;11.53;;
14528;SDS011;7351;51.194;4.098;2023-05-10T11:39:18;13.03;;;12.03;;
14528;SDS011;7351;51.194;4.098;2023-05-10T11:41:47;12.23;;;11.43;;
14528;SDS011;7351;51.194;4.098;2023-05-10T11:44:15;12.00;;;11.17;;
14528;SDS011;7351;51.194;4.098;2023-05-10T11:46:42;14.13;;;12.63;;
14528;SDS011;7351;51.194;4.098;2023-05-10T11:49:09;13.77;;;12.77;;
14528;SDS011;7351;51.194;4.098;2023-05-10T11:51:39;12.87;;;11.90;;
14528;SDS011;7351;51.194;4.098;2023-05-10T11:54:09;11.37;;;10.50;;
14528;SDS011;7351;51.194;4.098;2023-05-10T11:56:36;12.20;;;11.20;;
14528;SDS011;7351;51.194;4.098;2023-05-10T11:59:04;12.40;;;11.50;;
14528;SDS011;7351;51.194;4.098;2023-05-10T12:01:31;12.47;;;11.47;;
14528;SDS011;7351;51.194;4.098;2023-05-10T12:03:58;12.77;;;11.77;;
14528;SDS011;7351;51.194;4.098;2023-05-10T12:06:26;12.30;;;11.33;;
14528;SDS011;7351;51.194;4.098;2023-05-10T12:08:56;12.30;;;11.27;;
14528;SDS011;7351;51.194;4.098;2023-05-10T12:11:24;12.97;;;11.67;;
14528;SDS011;7351;51.194;4.098;2023-05-10T12:13:52;10.97;;;9.90;;
14528;SDS011;7351;51.194;4.098;2023-05-10T12:16:20;11.43;;;10.63;;
14528;SDS011;7351;51.194;4.098;2023-05-10T12:18:48;11.77;;;10.73;;
14528;SDS011;7351;51.194;4.098;2023-05-10T12:21:16;11.97;;;11.17;;
14528;SDS011;7351;51.194;4.098;2023-05-10T12:23:45;12.00;;;11.00;;
14528;SDS011;7351;51.194;4.098;2023-05-10T12:26:14;11.07;;;10.37;;
14528;SDS011;7351;51.194;4.098;2023-05-10T12:28:41;12.20;;;11.20;;
14528;SDS011;7351;51.194;4.098;2023-05-10T12:31:08;10.77;;;9.97;;
14528;SDS011;7351;51.194;4.098;2023-05-10T12:33:36;11.63;;;10.63;;
14528;SDS011;7351;51.194;4.098;2023-05-10T12:36:06;13.30;;;12.07;;
14528;SDS011;7351;51.194;4.098;2023-05-10T12:38:35;11.23;;;10.53;;
14528;SDS011;7351;51.194;4.098;2023-05-10T12:41:03;12.33;;;10.90;;
14528;SDS011;7351;51.194;4.098;2023-05-10T12:43:33;10.97;;;10.17;;
14528;SDS011;7351;51.194;4.098;2023-05-10T12:46:04;10.77;;;10.07;;
14528;SDS011;7351;51.194;4.098;2023-05-10T12:48:31;12.43;;;11.53;;
14528;SDS011;7351;51.194;4.098;2023-05-10T12:50:59;11.03;;;10.23;;
14528;SDS011;7351;51.194;4.098;2023-05-10T12:53:26;10.97;;;10.23;;
14528;SDS011;7351;51.194;4.098;2023-05-10T12:55:53;10.50;;;9.57;;
14528;SDS011;7351;51.194;4.098;2023-05-10T12:58:20;10.87;;;10.10;;
14528;SDS011;7351;51.194;4.098;2023-05-10T13:00:51;10.73;;;9.93;;
14528;SDS011;7351;51.194;4.098;2023-05-10T13:03:18;12.60;;;11.63;;
14528;SDS011;7351;51.194;4.098;2023-05-10T13:05:45;11.13;;;10.23;;
14528;SDS011;7351;51.194;4.098;2023-05-10T13:08:12;10.00;;;9.20;;
14528;SDS011;7351;51.194;4.098;2023-05-10T13:10:39;10.17;;;9.27;;
14528;SDS011;7351;51.194;4.098;2023-05-10T13:13:06;11.17;;;10.40;;
14528;SDS011;7351;51.194;4.098;2023-05-10T13:15:33;10.13;;;9.43;;
14528;SDS011;7351;51.194;4.098;2023-05-10T13:18:04;11.03;;;10.03;;
14528;SDS011;7351;51.194;4.098;2023-05-10T13:20:31;10.80;;;9.87;;
14528;SDS011;7351;51.194;4.098;2023-05-10T13:22:58;10.47;;;8.97;;
14528;SDS011;7351;51.194;4.098;2023-05-10T13:25:25;9.70;;;8.90;;
14528;SDS011;7351;51.194;4.098;2023-05-10T13:27:52;9.63;;;8.93;;
14528;SDS011;7351;51.194;4.098;2023-05-10T13:30:19;9.37;;;8.77;;
14528;SDS011;7351;51.194;4.098;2023-05-10T13:32:46;10.07;;;9.37;;
14528;SDS011;7351;51.194;4.098;2023-05-10T13:35:16;9.47;;;8.63;;
14528;SDS011;7351;51.194;4.098;2023-05-10T13:37:43;10.53;;;9.73;;
14528;SDS011;7351;51.194;4.098;2023-05-10T13:40:10;10.13;;;9.23;;
14528;SDS011;7351;51.194;4.098;2023-05-10T13:42:38;9.97;;;9.17;;
14528;SDS011;7351;51.194;4.098;2023-05-10T13:45:06;9.83;;;9.03;;
14528;SDS011;7351;51.194;4.098;2023-05-10T13:47:33;12.17;;;11.00;;
14528;SDS011;7351;51.194;4.098;2023-05-10T13:50:00;10.60;;;9.53;;
14528;SDS011;7351;51.194;4.098;2023-05-10T13:52:29;10.40;;;9.47;;
14528;SDS011;7351;51.194;4.098;2023-05-10T13:54:56;11.60;;;10.03;;
14528;SDS011;7351;51.194;4.098;2023-05-10T13:57:23;11.07;;;9.87;;
14528;SDS011;7351;51.194;4.098;2023-05-10T13:59:51;9.87;;;9.00;;
14528;SDS011;7351;51.194;4.098;2023-05-10T14:02:18;9.70;;;8.90;;
14528;SDS011;7351;51.194;4.098;2023-05-10T14:04:45;8.77;;;8.00;;
14528;SDS011;7351;51.194;4.098;2023-05-10T14:07:12;10.90;;;9.90;;
14528;SDS011;7351;51.194;4.098;2023-05-10T14:09:40;10.30;;;9.37;;
14528;SDS011;7351;51.194;4.098;2023-05-10T14:12:07;10.17;;;9.20;;
14528;SDS011;7351;51.194;4.098;2023-05-10T14:14:34;10.93;;;10.13;;
14528;SDS011;7351;51.194;4.098;2023-05-10T14:17:01;10.37;;;9.50;;
14528;SDS011;7351;51.194;4.098;2023-05-10T14:19:28;10.20;;;9.43;;
14528;SDS011;7351;51.194;4.098;2023-05-10T14:21:57;10.57;;;9.67;;
14528;SDS011;7351;51.194;4.098;2023-05-10T14:24:24;10.60;;;9.70;;
14528;SDS011;7351;51.194;4.098;2023-05-10T14:26:52;10.43;;;9.63;;
14528;SDS011;7351;51.194;4.098;2023-05-10T14:29:19;10.50;;;9.70;;
14528;SDS011;7351;51.194;4.098;2023-05-10T14:31:47;11.43;;;10.50;;
14528;SDS011;7351;51.194;4.098;2023-05-10T14:34:14;10.17;;;9.27;;
14528;SDS011;7351;51.194;4.098;2023-05-10T14:36:41;10.80;;;9.80;;
14528;SDS011;7351;51.194;4.098;2023-05-10T14:39:07;10.40;;;9.40;;
14528;SDS011;7351;51.194;4.098;2023-05-10T14:41:37;11.60;;;10.67;;
14528;SDS011;7351;51.194;4.098;2023-05-10T14:44:07;10.43;;;9.50;;
14528;SDS011;7351;51.194;4.098;2023-05-10T14:46:35;10.23;;;9.43;;
14528;SDS011;7351;51.194;4.098;2023-05-10T14:49:02;10.00;;;8.93;;
14528;SDS011;7351;51.194;4.098;2023-05-10T14:51:29;12.40;;;9.83;;
14528;SDS011;7351;51.194;4.098;2023-05-10T14:53:56;10.03;;;9.03;;
14528;SDS011;7351;51.194;4.098;2023-05-10T14:56:24;13.20;;;8.90;;
14528;SDS011;7351;51.194;4.098;2023-05-10T14:58:52;9.73;;;8.83;;
14528;SDS011;7351;51.194;4.098;2023-05-10T15:01:21;10.10;;;7.43;;
14528;SDS011;7351;51.194;4.098;2023-05-10T15:03:48;9.37;;;7.47;;
14528;SDS011;7351;51.194;4.098;2023-05-10T15:06:15;8.97;;;8.07;;
14528;SDS011;7351;51.194;4.098;2023-05-10T15:08:42;9.53;;;8.23;;
14528;SDS011;7351;51.194;4.098;2023-05-10T15:11:09;9.10;;;7.73;;
14528;SDS011;7351;51.194;4.098;2023-05-10T15:13:36;13.50;;;8.97;;
14528;SDS011;7351;51.194;4.098;2023-05-10T15:16:03;12.23;;;8.20;;
14528;SDS011;7351;51.194;4.098;2023-05-10T15:18:31;10.63;;;8.53;;
14528;SDS011;7351;51.194;4.098;2023-05-10T15:20:58;11.13;;;9.20;;
14528;SDS011;7351;51.194;4.098;2023-05-10T15:23:25;11.77;;;8.53;;
14528;SDS011;7351;51.194;4.098;2023-05-10T15:25:53;15.40;;;9.33;;
14528;SDS011;7351;51.194;4.098;2023-05-10T15:28:20;9.37;;;7.67;;
14528;SDS011;7351;51.194;4.098;2023-05-10T15:30:47;11.27;;;9.10;;
14528;SDS011;7351;51.194;4.098;2023-05-10T15:33:14;13.83;;;8.70;;